Time;durP1;ratioP1;P1;durP2;ratioP2;P2;SDS_P1;SDS_P2;PMS_P1;PMS_P2;Temp;Humidity;BMP_temperature;BMP_pressure;BME280_temperature;BME280_humidity;BME280_pressure;Samples;Min_cycle;Max_cycle;Signal;HPM_P1;HPM_P2
2023/01/18 00:06:20;;;;;;;0.30;0.30;;;;;;;16.00;69.89;98644.47;20295863;29;20048;-87
2023/01/18 00:16:24;;;;;;;0.20;0.20;;;;;;;16.01;69.82;98656.03;20310359;29;20056;-87
2023/01/18 00:26:26;;;;;;;4.15;1.75;;;;;;;16.00;69.93;98660.56;20320111;29;20044;-88
2023/01/18 00:36:28;;;;;;;0.20;0.20;;;;;;;16.00;69.90;98665.94;20310751;29;20104;-88
2023/01/18 00:46:29;;;;;;;0.30;0.30;;;;;;;15.75;70.08;98625.81;20326372;29;20068;-88
2023/01/18 00:56:31;;;;;;;0.47;0.43;;;;;;;16.00;69.85;98652.53;20324823;29;20056;-87
2023/01/18 01:06:43;;;;;;;0.73;0.28;;;;;;;15.61;69.78;98605.94;20308071;29;20114;-88
2023/01/18 01:27:04;;;;;;;0.30;0.30;;;;;;;15.99;69.76;98671.47;20323290;29;20051;-88
2023/01/18 01:37:06;;;;;;;0.22;0.20;;;;;;;15.99;69.61;98690.25;20322098;29;20530;-88
2023/01/18 01:47:30;;;;;;;0.50;0.30;;;;;;;15.94;69.39;98680.06;20322230;29;20096;-88
2023/01/18 01:57:45;;;;;;;0.55;0.30;;;;;;;15.91;69.76;98675.06;20304499;29;20060;-89
2023/01/18 02:07:47;;;;;;;0.30;0.30;;;;;;;15.97;69.35;98687.78;20288808;29;20418;-88
2023/01/18 02:18:00;;;;;;;1.02;0.40;;;;;;;15.83;69.49;98681.28;20320038;29;20581;-88
2023/01/18 02:28:18;;;;;;;0.20;0.20;;;;;;;15.97;69.64;98700.34;20319202;29;20115;-88
2023/01/18 02:38:31;;;;;;;0.22;0.22;;;;;;;15.97;69.40;98709.25;20301843;29;20108;-87
2023/01/18 02:48:36;;;;;;;0.35;0.30;;;;;;;15.66;69.25;98659.06;20300652;29;20052;-88
2023/01/18 02:58:41;;;;;;;0.23;0.23;;;;;;;15.95;69.29;98704.03;20299705;29;20071;-88
2023/01/18 03:08:48;;;;;;;0.20;0.20;;;;;;;15.95;69.15;98717.44;20283721;29;20107;-88
2023/01/18 03:19:01;;;;;;;1.00;0.30;;;;;;;15.95;69.41;98716.63;20298754;29;20059;-88
2023/01/18 03:39:27;;;;;;;2.05;0.35;;;;;;;15.28;69.12;98624.06;20300071;29;20051;-88
2023/01/18 03:49:30;;;;;;;0.57;0.30;;;;;;;15.66;69.10;98684.03;20313202;29;20048;-88
2023/01/18 03:59:36;;;;;;;0.75;0.50;;;;;;;15.64;68.87;98688.75;20295396;29;20111;-88
2023/01/18 04:09:38;;;;;;;0.30;0.30;;;;;;;15.88;68.98;98737.09;20295886;29;20415;-88
2023/01/18 04:19:39;;;;;;;0.52;0.35;;;;;;;15.58;69.11;98684.09;20311652;29;20067;-88
2023/01/18 04:29:41;;;;;;;0.82;0.40;;;;;;;15.87;68.92;98738.09;20311736;29;20076;-88
2023/01/18 04:39:42;;;;;;;0.30;0.30;;;;;;;15.79;69.14;98729.06;20311068;29;20056;-88
2023/01/18 04:49:44;;;;;;;0.20;0.20;;;;;;;15.93;68.75;98761.59;20311108;29;20056;-88
2023/01/18 04:59:45;;;;;;;0.20;0.20;;;;;;;15.70;68.81;98727.44;20310772;29;20056;-88
2023/01/18 05:09:47;;;;;;;0.35;0.30;;;;;;;15.94;69.01;98768.63;20295753;29;20143;-88
2023/01/18 05:19:50;;;;;;;0.38;0.38;;;;;;;15.92;68.88;98786.75;20323531;29;20103;-87
2023/01/18 05:29:51;;;;;;;0.55;0.40;;;;;;;15.92;68.59;98789.44;20319082;29;20048;-91
2023/01/18 05:39:53;;;;;;;0.65;0.30;;;;;;;15.98;69.08;98802.16;20282459;29;20100;-91
2023/01/18 05:49:56;;;;;;;4.88;0.93;;;;;;;16.07;70.39;98802.94;20299653;29;20131;-89
2023/01/18 05:59:58;;;;;;;2.45;0.70;;;;;;;16.16;69.78;98819.84;20275524;29;20478;-89
2023/01/18 06:10:00;;;;;;;2.10;0.68;;;;;;;16.14;69.73;98832.59;20278906;29;20052;-89
2023/01/18 06:20:03;;;;;;;1.55;0.80;;;;;;;16.09;69.68;98835.78;20304098;29;20092;-91
2023/01/18 06:30:06;;;;;;;1.15;0.60;;;;;;;16.06;69.77;98847.72;20295814;29;20566;-86
2023/01/18 06:40:08;;;;;;;1.58;0.50;;;;;;;16.03;69.68;98853.47;20283480;29;20530;-89
2023/01/18 06:50:10;;;;;;;1.42;0.65;;;;;;;15.85;69.99;98850.97;20291079;29;20111;-88
2023/01/18 07:00:12;;;;;;;1.50;0.52;;;;;;;15.98;70.01;98882.66;20299720;29;20076;-88
2023/01/18 07:10:14;;;;;;;0.45;0.45;;;;;;;15.77;69.94;98859.06;20299291;29;20139;-89
2023/01/18 07:20:18;;;;;;;0.65;0.60;;;;;;;15.96;69.74;98911.53;20298511;29;20108;-88
2023/01/18 07:30:20;;;;;;;0.93;0.50;;;;;;;15.90;69.91;98913.03;20298698;29;20056;-88
2023/01/18 07:40:22;;;;;;;0.60;0.40;;;;;;;15.71;70.02;98898.13;20281262;29;20052;-88
2023/01/18 07:50:23;;;;;;;1.60;0.60;;;;;;;15.92;70.17;98942.41;20313317;29;20044;-89
2023/01/18 08:00:26;;;;;;;0.40;0.40;;;;;;;15.87;70.07;98939.34;20312460;29;20060;-88
2023/01/18 08:10:28;;;;;;;0.60;0.50;;;;;;;15.79;69.98;98937.53;20310159;29;20048;-89
2023/01/18 08:20:30;;;;;;;0.35;0.35;;;;;;;15.92;70.04;98969.22;20291564;29;20060;-88
2023/01/18 08:30:38;;;;;;;0.85;0.45;;;;;;;15.91;69.99;98983.66;20251718;29;20052;-88
2023/01/18 08:40:39;;;;;;;0.30;0.30;;;;;;;15.91;69.84;98991.72;20312119;29;20048;-87
2023/01/18 08:50:44;;;;;;;0.30;0.30;;;;;;;15.93;70.02;99003.13;20324247;29;20079;-87
2023/01/18 09:00:49;;;;;;;0.73;0.57;;;;;;;15.93;69.73;99014.66;20309085;29;20080;-88
2023/01/18 09:10:51;;;;;;;0.40;0.40;;;;;;;15.66;69.62;98976.41;20325182;29;20131;-87
2023/01/18 09:20:53;;;;;;;0.85;0.45;;;;;;;15.95;69.72;99033.31;20324575;29;20388;-88
2023/01/18 09:30:58;;;;;;;0.93;0.60;;;;;;;15.96;69.84;99056.44;20323847;29;20056;-87
2023/01/18 09:41:00;;;;;;;;;;;;;;;15.96;69.49;99056.44;20323904;29;20056;-87
2023/01/18 09:51:12;;;;;;;0.50;0.50;;;;;;;15.95;69.77;99060.13;20322246;29;19959;-87
2023/01/18 10:01:17;;;;;;;0.30;0.30;;;;;;;15.87;69.51;99066.31;20273060;29;20051;-87
2023/01/18 10:11:30;;;;;;;;;;;;;;;15.94;69.56;99064.66;20320670;29;20139;-87
2023/01/18 10:21:46;;;;;;;0.65;0.40;;;;;;;15.94;69.35;99070.03;20303471;29;20017;-87
2023/01/18 10:31:57;;;;;;;0.45;0.30;;;;;;;15.89;69.37;99060.78;20302463;29;20048;-88
2023/01/18 10:42:02;;;;;;;0.30;0.30;;;;;;;15.95;69.05;99066.31;20303272;29;20521;-87
2023/01/18 10:52:22;;;;;;;0.77;0.43;;;;;;;15.96;69.24;99072.56;20318278;29;20044;-87
2023/01/18 11:02:35;;;;;;;0.57;0.50;;;;;;;15.97;69.11;99078.75;20317642;29;20052;-87
2023/01/18 11:12:43;;;;;;;0.82;0.40;;;;;;;15.96;69.23;99069.88;20284635;29;20084;-87
2023/01/18 11:22:59;;;;;;;0.55;0.50;;;;;;;15.75;68.98;99038.16;20316176;29;20055;-88
2023/01/18 11:33:01;;;;;;;0.38;0.30;;;;;;;15.97;69.21;99068.00;20298204;29;20074;-87
2023/01/18 11:43:21;;;;;;;0.60;0.40;;;;;;;15.97;69.02;99059.94;20282781;29;20054;-87
2023/01/18 11:53:50;;;;;;;0.38;0.35;;;;;;;15.98;68.96;99057.13;20314317;29;20048;-87
2023/01/18 12:04:01;;;;;;;;;;;;;;;15.97;68.86;99063.50;20313358;29;20063;-87
2023/01/18 12:14:15;;;;;;;0.50;0.40;;;;;;;15.90;68.78;99046.34;20297215;29;19926;-88
2023/01/18 12:24:29;;;;;;;0.63;0.50;;;;;;;15.97;68.84;99060.81;20306984;29;20051;-87
2023/01/18 12:34:40;;;;;;;0.32;0.32;;;;;;;15.85;69.08;99027.22;20288303;29;20142;-88
2023/01/18 12:44:51;;;;;;;0.30;0.30;;;;;;;15.98;68.84;99042.84;20294420;29;20459;-89
2023/01/18 12:54:56;;;;;;;1.45;0.40;;;;;;;15.69;68.83;98995.88;20303214;29;20063;-86
2023/01/18 13:05:18;;;;;;;0.53;0.43;;;;;;;16.01;68.52;99047.88;20289347;29;20122;-86
2023/01/18 13:15:59;;;;;;;2.25;0.50;;;;;;;16.00;68.63;99057.78;20271848;29;20086;-87
2023/01/18 13:26:10;;;;;;;1.05;0.60;;;;;;;16.01;68.70;99058.59;20245845;29;20052;-85
2023/01/18 13:36:16;;;;;;;0.55;0.40;;;;;;;15.84;68.73;99036.28;20289670;29;20056;-86
2023/01/18 13:46:20;;;;;;;0.93;0.43;;;;;;;16.01;69.01;99058.59;20311035;29;20050;-86
2023/01/18 13:56:24;;;;;;;0.83;0.40;;;;;;;16.01;68.74;99037.13;20296556;29;20111;-88
2023/01/18 14:06:35;;;;;;;0.47;0.47;;;;;;;15.80;68.89;99008.97;20295765;29;20051;-89
2023/01/18 14:17:13;;;;;;;0.40;0.40;;;;;;;15.98;68.96;99035.66;20303433;29;20174;-88
2023/01/18 14:27:21;;;;;;;0.38;0.38;;;;;;;15.87;68.90;99030.56;20301702;29;20468;-90
2023/01/18 14:37:29;;;;;;;0.45;0.40;;;;;;;15.99;68.87;99053.41;20278798;29;20068;-89
2023/01/18 14:47:32;;;;;;;0.35;0.32;;;;;;;16.00;68.97;99062.28;20247732;29;20055;-89
2023/01/18 14:57:33;;;;;;;1.05;0.40;;;;;;;15.99;68.87;99055.25;20251177;29;20135;-92
2023/01/18 15:07:37;;;;;;;0.38;0.30;;;;;;;16.01;69.13;99064.81;20261461;29;20048;-89
2023/01/18 15:17:39;;;;;;;0.40;0.40;;;;;;;15.97;69.28;99068.84;20234039;29;20158;-89
2023/01/18 15:27:46;;;;;;;1.65;0.43;;;;;;;16.02;70.81;99077.25;20259788;29;20100;-89
2023/01/18 15:37:50;;;;;;;0.82;0.52;;;;;;;16.02;72.42;99074.56;20278990;29;20058;-89
2023/01/18 15:47:57;;;;;;;0.75;0.50;;;;;;;15.99;73.55;99072.22;20312400;29;20530;-90
2023/01/18 15:58:01;;;;;;;0.60;0.50;;;;;;;15.63;74.71;99024.22;20311186;29;20059;-89
2023/01/18 16:08:20;;;;;;;1.38;0.43;;;;;;;15.89;75.66;99071.53;20253117;29;20120;-90
2023/01/18 16:18:23;;;;;;;0.68;0.50;;;;;;;15.94;76.58;99080.75;20299794;29;20052;-88
2023/01/18 16:28:25;;;;;;;0.73;0.50;;;;;;;15.71;77.32;99048.34;20290283;29;20400;-89
2023/01/18 16:38:26;;;;;;;0.45;0.30;;;;;;;15.95;78.06;99097.72;20280354;29;20059;-89
2023/01/18 16:48:29;;;;;;;0.52;0.50;;;;;;;15.89;78.67;99087.63;20274765;29;20063;-88
2023/01/18 16:58:32;;;;;;;0.90;0.47;;;;;;;15.94;79.44;99118.31;20268805;29;20067;-94
2023/01/18 17:08:34;;;;;;;0.40;0.40;;;;;;;15.95;79.98;99127.22;20298039;29;20529;-92
2023/01/18 17:18:35;;;;;;;1.15;0.40;;;;;;;15.93;80.35;99115.81;20277497;29;20044;-93
2023/01/18 17:28:39;;;;;;;0.40;0.40;;;;;;;15.95;80.45;99127.22;20309274;29;20068;-94
2023/01/18 17:38:41;;;;;;;0.43;0.35;;;;;;;15.95;80.97;99119.19;20290841;29;20052;-86
2023/01/18 17:48:42;;;;;;;0.70;0.55;;;;;;;15.88;80.78;99110.09;20264648;29;20080;-91
2023/01/18 17:58:48;;;;;;;0.40;0.40;;;;;;;15.78;81.20;99108.38;20261951;29;20086;-88
2023/01/18 18:08:50;;;;;;;1.27;0.50;;;;;;;15.95;81.63;99144.16;20250306;29;20060;-90
2023/01/18 18:18:52;;;;;;;0.70;0.60;;;;;;;15.84;81.88;99127.50;20243557;29;20052;-91
2023/01/18 18:28:53;;;;;;;1.02;0.40;;;;;;;15.81;82.43;99137.56;20277881;29;20052;-95
2023/01/18 18:38:55;;;;;;;2.17;0.50;;;;;;;15.97;82.45;99154.75;20289636;29;20056;-90
2023/01/18 18:48:56;;;;;;;0.80;0.60;;;;;;;15.96;82.68;99166.47;20273439;29;20569;-89
2023/01/18 18:58:58;;;;;;;2.83;0.90;;;;;;;15.78;82.77;99145.94;20272758;29;20154;-84
2023/01/18 19:09:00;;;;;;;1.30;1.10;;;;;;;15.92;82.70;99178.56;20297226;29;20064;-88
2023/01/18 19:19:02;;;;;;;2.63;0.90;;;;;;;15.61;82.85;99131.66;20304522;29;20048;-92
2023/01/18 19:29:03;;;;;;;2.30;0.75;;;;;;;15.99;83.30;99202.88;20218888;29;20503;-92
2023/01/18 19:39:05;;;;;;;2.28;0.90;;;;;;;15.97;83.21;99208.41;20237046;29;20081;-90
2023/01/18 19:49:18;;;;;;;2.10;0.80;;;;;;;15.85;83.24;99205.16;20281975;29;20048;-91
2023/01/18 19:59:20;;;;;;;;;;;;;;;15.99;83.50;99225.19;20314991;29;20063;-91
2023/01/18 20:09:21;;;;;;;1.85;0.80;;;;;;;15.99;83.54;99241.31;20313862;29;20013;-91
2023/01/18 20:19:45;;;;;;;1.30;0.60;;;;;;;15.98;83.66;99242.31;20313788;29;20499;-91
2023/01/18 20:29:48;;;;;;;1.30;0.88;;;;;;;15.98;83.75;99247.69;20296486;29;20605;-93
2023/01/18 20:39:52;;;;;;;1.38;0.80;;;;;;;15.98;83.60;99253.03;20315846;29;20056;-92
2023/01/18 20:49:54;;;;;;;0.85;0.70;;;;;;;15.99;83.59;99254.72;20327601;29;20044;-92
2023/01/18 20:59:55;;;;;;;0.77;0.60;;;;;;;15.99;83.67;99254.72;20310372;29;20499;-92
2023/01/18 21:09:57;;;;;;;1.48;0.60;;;;;;;15.99;83.60;99270.84;20326811;29;20070;-91
2023/01/18 21:19:58;;;;;;;0.95;0.70;;;;;;;15.64;83.43;99224.41;20326022;29;20063;-92
2023/01/18 21:30:00;;;;;;;1.23;0.60;;;;;;;15.98;83.63;99287.94;20308030;29;20119;-92
2023/01/18 21:40:02;;;;;;;2.13;0.77;;;;;;;16.00;83.47;99298.50;20307772;29;20107;-92
2023/01/18 22:00:26;;;;;;;1.42;0.73;;;;;;;16.00;83.31;99320.81;20296147;29;20086;-92
2023/01/18 22:10:28;;;;;;;1.42;0.90;;;;;;;16.00;82.89;99315.47;20322190;29;20052;-91
2023/01/18 22:20:29;;;;;;;1.25;0.80;;;;;;;16.00;82.88;99326.19;20304356;29;20060;-92
2023/01/18 22:30:32;;;;;;;1.40;0.80;;;;;;;16.00;82.72;99331.56;20320128;29;20060;-93
2023/01/18 22:40:33;;;;;;;0.70;0.57;;;;;;;16.00;82.44;99333.38;20319907;29;20060;-91
2023/01/18 22:50:35;;;;;;;1.33;0.68;;;;;;;16.00;82.42;99331.56;20319116;29;20459;-93
2023/01/18 23:00:37;;;;;;;0.77;0.68;;;;;;;16.00;82.11;99336.94;20318363;29;20525;-92
2023/01/18 23:10:38;;;;;;;1.83;0.60;;;;;;;16.00;82.23;99342.28;20316688;29;20463;-92
2023/01/18 23:20:40;;;;;;;1.38;0.70;;;;;;;16.00;81.89;99338.75;20316880;29;20083;-92
2023/01/18 23:30:41;;;;;;;1.25;0.70;;;;;;;16.00;81.75;99336.94;20299359;29;20507;-91
